sensor_id;sensor_type;location;lat;lon;timestamp;temperature;humidity
40085;DHT22;25786;51.504;7.344;2023-05-16T00:00:40;12.00;87.80
40085;DHT22;25786;51.504;7.344;2023-05-16T00:03:05;12.00;87.70
40085;DHT22;25786;51.504;7.344;2023-05-16T00:05:31;12.00;87.80
40085;DHT22;25786;51.504;7.344;2023-05-16T00:07:57;12.10;87.00
40085;DHT22;25786;51.504;7.344;2023-05-16T00:10:22;12.00;86.50
40085;DHT22;25786;51.504;7.344;2023-05-16T00:12:48;11.90;87.20
40085;DHT22;25786;51.504;7.344;2023-05-16T00:15:16;11.80;88.20
40085;DHT22;25786;51.504;7.344;2023-05-16T00:17:42;11.90;87.20
40085;DHT22;25786;51.504;7.344;2023-05-16T00:20:10;11.80;86.90
40085;DHT22;25786;51.504;7.344;2023-05-16T00:22:38;11.80;87.20
40085;DHT22;25786;51.504;7.344;2023-05-16T00:25:04;11.70;86.80
40085;DHT22;25786;51.504;7.344;2023-05-16T00:27:29;11.60;86.50
40085;DHT22;25786;51.504;7.344;2023-05-16T00:29:55;11.50;87.10
40085;DHT22;25786;51.504;7.344;2023-05-16T00:32:20;11.50;87.60
40085;DHT22;25786;51.504;7.344;2023-05-16T00:34:46;11.40;87.80
40085;DHT22;25786;51.504;7.344;2023-05-16T00:37:12;11.50;88.00
40085;DHT22;25786;51.504;7.344;2023-05-16T00:39:37;11.40;87.60
40085;DHT22;25786;51.504;7.344;2023-05-16T00:42:03;11.30;88.10
40085;DHT22;25786;51.504;7.344;2023-05-16T00:44:28;11.30;87.60
40085;DHT22;25786;51.504;7.344;2023-05-16T00:46:55;11.40;87.80
40085;DHT22;25786;51.504;7.344;2023-05-16T00:49:20;11.40;88.10
40085;DHT22;25786;51.504;7.344;2023-05-16T00:51:46;11.50;87.90
40085;DHT22;25786;51.504;7.344;2023-05-16T00:54:12;11.40;87.60
40085;DHT22;25786;51.504;7.344;2023-05-16T00:56:37;11.50;87.10
40085;DHT22;25786;51.504;7.344;2023-05-16T00:59:03;11.50;87.60
40085;DHT22;25786;51.504;7.344;2023-05-16T01:01:29;11.50;87.60
40085;DHT22;25786;51.504;7.344;2023-05-16T01:03:55;11.40;87.80
40085;DHT22;25786;51.504;7.344;2023-05-16T01:06:21;11.40;87.10
40085;DHT22;25786;51.504;7.344;2023-05-16T01:08:47;11.30;87.40
40085;DHT22;25786;51.504;7.344;2023-05-16T01:13:52;11.40;88.10
40085;DHT22;25786;51.504;7.344;2023-05-16T01:16:21;11.30;88.10
40085;DHT22;25786;51.504;7.344;2023-05-16T01:18:53;11.30;88.00
40085;DHT22;25786;51.504;7.344;2023-05-16T01:24:18;11.30;87.90
40085;DHT22;25786;51.504;7.344;2023-05-16T01:26:46;11.30;88.20
40085;DHT22;25786;51.504;7.344;2023-05-16T01:29:13;11.30;87.80
40085;DHT22;25786;51.504;7.344;2023-05-16T01:31:38;11.20;88.20
40085;DHT22;25786;51.504;7.344;2023-05-16T01:34:04;11.20;87.30
40085;DHT22;25786;51.504;7.344;2023-05-16T01:39:32;11.00;87.60
40085;DHT22;25786;51.504;7.344;2023-05-16T01:42:04;11.00;87.80
40085;DHT22;25786;51.504;7.344;2023-05-16T01:44:32;10.80;87.40
40085;DHT22;25786;51.504;7.344;2023-05-16T01:47:00;10.60;87.60
40085;DHT22;25786;51.504;7.344;2023-05-16T01:49:30;10.50;87.40
40085;DHT22;25786;51.504;7.344;2023-05-16T01:52:00;10.30;86.60
40085;DHT22;25786;51.504;7.344;2023-05-16T01:54:28;10.00;87.10
40085;DHT22;25786;51.504;7.344;2023-05-16T01:56:55;9.90;89.10
40085;DHT22;25786;51.504;7.344;2023-05-16T01:59:21;9.90;88.90
40085;DHT22;25786;51.504;7.344;2023-05-16T02:01:47;9.80;88.50
40085;DHT22;25786;51.504;7.344;2023-05-16T02:04:13;9.60;88.60
40085;DHT22;25786;51.504;7.344;2023-05-16T02:06:40;9.60;88.90
40085;DHT22;25786;51.504;7.344;2023-05-16T02:09:06;9.60;89.00
40085;DHT22;25786;51.504;7.344;2023-05-16T02:11:31;9.60;88.80
40085;DHT22;25786;51.504;7.344;2023-05-16T02:13:57;9.60;89.10
40085;DHT22;25786;51.504;7.344;2023-05-16T02:16:22;9.60;88.30
40085;DHT22;25786;51.504;7.344;2023-05-16T02:18:48;9.60;88.60
40085;DHT22;25786;51.504;7.344;2023-05-16T02:21:13;9.60;89.60
40085;DHT22;25786;51.504;7.344;2023-05-16T02:23:39;9.70;88.30
40085;DHT22;25786;51.504;7.344;2023-05-16T02:26:04;9.60;87.60
40085;DHT22;25786;51.504;7.344;2023-05-16T02:28:30;9.60;88.10
40085;DHT22;25786;51.504;7.344;2023-05-16T02:30:56;9.50;88.30
40085;DHT22;25786;51.504;7.344;2023-05-16T02:33:22;9.60;88.30
40085;DHT22;25786;51.504;7.344;2023-05-16T02:35:47;9.60;88.20
40085;DHT22;25786;51.504;7.344;2023-05-16T02:38:13;9.70;88.50
40085;DHT22;25786;51.504;7.344;2023-05-16T02:40:41;9.60;88.30
40085;DHT22;25786;51.504;7.344;2023-05-16T02:43:07;9.80;88.00
40085;DHT22;25786;51.504;7.344;2023-05-16T02:45:32;9.70;88.10
40085;DHT22;25786;51.504;7.344;2023-05-16T02:47:58;9.70;87.90
40085;DHT22;25786;51.504;7.344;2023-05-16T02:50:23;9.90;87.40
40085;DHT22;25786;51.504;7.344;2023-05-16T02:52:49;9.80;88.10
40085;DHT22;25786;51.504;7.344;2023-05-16T02:55:15;9.80;87.50
40085;DHT22;25786;51.504;7.344;2023-05-16T02:57:40;9.80;87.40
40085;DHT22;25786;51.504;7.344;2023-05-16T03:00:06;9.70;87.90
40085;DHT22;25786;51.504;7.344;2023-05-16T03:02:31;9.80;88.00
40085;DHT22;25786;51.504;7.344;2023-05-16T03:04:57;9.70;88.50
40085;DHT22;25786;51.504;7.344;2023-05-16T03:07:23;9.70;87.50
40085;DHT22;25786;51.504;7.344;2023-05-16T03:09:48;9.80;87.30
40085;DHT22;25786;51.504;7.344;2023-05-16T03:12:13;9.80;86.90
40085;DHT22;25786;51.504;7.344;2023-05-16T03:14:39;9.80;87.80
40085;DHT22;25786;51.504;7.344;2023-05-16T03:17:05;9.90;87.80
40085;DHT22;25786;51.504;7.344;2023-05-16T03:19:30;9.90;87.40
40085;DHT22;25786;51.504;7.344;2023-05-16T03:21:56;9.80;87.90
40085;DHT22;25786;51.504;7.344;2023-05-16T03:24:21;9.90;87.50
40085;DHT22;25786;51.504;7.344;2023-05-16T03:26:47;9.80;87.10
40085;DHT22;25786;51.504;7.344;2023-05-16T03:29:12;9.90;86.20
40085;DHT22;25786;51.504;7.344;2023-05-16T03:31:38;9.70;86.60
40085;DHT22;25786;51.504;7.344;2023-05-16T03:34:03;9.70;87.00
40085;DHT22;25786;51.504;7.344;2023-05-16T03:36:29;9.70;87.30
40085;DHT22;25786;51.504;7.344;2023-05-16T03:38:54;9.70;87.70
40085;DHT22;25786;51.504;7.344;2023-05-16T03:41:20;9.70;87.50
40085;DHT22;25786;51.504;7.344;2023-05-16T03:43:46;9.70;87.10
40085;DHT22;25786;51.504;7.344;2023-05-16T03:46:11;9.90;86.50
40085;DHT22;25786;51.504;7.344;2023-05-16T03:48:37;9.80;86.60
40085;DHT22;25786;51.504;7.344;2023-05-16T03:51:02;9.60;86.70
40085;DHT22;25786;51.504;7.344;2023-05-16T03:53:28;9.60;87.00
40085;DHT22;25786;51.504;7.344;2023-05-16T03:55:53;9.60;86.30
40085;DHT22;25786;51.504;7.344;2023-05-16T03:58:19;9.50;86.30
40085;DHT22;25786;51.504;7.344;2023-05-16T04:00:44;9.50;86.60
40085;DHT22;25786;51.504;7.344;2023-05-16T04:03:11;9.60;86.20
40085;DHT22;25786;51.504;7.344;2023-05-16T04:05:36;9.60;84.70
40085;DHT22;25786;51.504;7.344;2023-05-16T04:08:02;9.50;83.80
40085;DHT22;25786;51.504;7.344;2023-05-16T04:10:27;9.50;84.30
40085;DHT22;25786;51.504;7.344;2023-05-16T04:12:52;9.30;85.30
40085;DHT22;25786;51.504;7.344;2023-05-16T04:15:18;9.40;84.30
40085;DHT22;25786;51.504;7.344;2023-05-16T04:17:43;9.30;84.80
40085;DHT22;25786;51.504;7.344;2023-05-16T04:20:09;9.40;84.70
40085;DHT22;25786;51.504;7.344;2023-05-16T04:22:35;9.40;85.00
40085;DHT22;25786;51.504;7.344;2023-05-16T04:25:00;9.20;85.50
40085;DHT22;25786;51.504;7.344;2023-05-16T04:27:26;9.30;85.10
40085;DHT22;25786;51.504;7.344;2023-05-16T04:29:52;9.30;85.00
40085;DHT22;25786;51.504;7.344;2023-05-16T04:32:17;9.30;84.10
40085;DHT22;25786;51.504;7.344;2023-05-16T04:34:44;9.10;85.20
40085;DHT22;25786;51.504;7.344;2023-05-16T04:37:11;9.20;85.10
40085;DHT22;25786;51.504;7.344;2023-05-16T04:39:36;9.10;85.10
40085;DHT22;25786;51.504;7.344;2023-05-16T04:42:02;9.10;85.50
40085;DHT22;25786;51.504;7.344;2023-05-16T04:44:28;9.20;84.80
40085;DHT22;25786;51.504;7.344;2023-05-16T04:46:54;9.10;85.40
40085;DHT22;25786;51.504;7.344;2023-05-16T04:49:20;9.20;85.30
40085;DHT22;25786;51.504;7.344;2023-05-16T04:51:45;9.10;85.20
40085;DHT22;25786;51.504;7.344;2023-05-16T04:54:11;9.10;85.70
40085;DHT22;25786;51.504;7.344;2023-05-16T04:56:37;9.10;85.70
40085;DHT22;25786;51.504;7.344;2023-05-16T04:59:02;9.20;85.10
40085;DHT22;25786;51.504;7.344;2023-05-16T05:01:28;9.30;83.90
40085;DHT22;25786;51.504;7.344;2023-05-16T05:03:54;9.30;84.00
40085;DHT22;25786;51.504;7.344;2023-05-16T05:06:19;9.40;84.40
40085;DHT22;25786;51.504;7.344;2023-05-16T05:08:45;9.40;85.10
40085;DHT22;25786;51.504;7.344;2023-05-16T05:11:11;9.30;84.90
40085;DHT22;25786;51.504;7.344;2023-05-16T05:13:36;9.60;83.30
40085;DHT22;25786;51.504;7.344;2023-05-16T05:16:02;9.60;83.40
40085;DHT22;25786;51.504;7.344;2023-05-16T05:18:29;9.60;83.00
40085;DHT22;25786;51.504;7.344;2023-05-16T05:20:54;9.70;82.50
40085;DHT22;25786;51.504;7.344;2023-05-16T05:23:20;9.70;82.10
40085;DHT22;25786;51.504;7.344;2023-05-16T05:25:46;9.80;81.60
40085;DHT22;25786;51.504;7.344;2023-05-16T05:28:11;9.80;81.80
40085;DHT22;25786;51.504;7.344;2023-05-16T05:30:37;9.80;80.90
40085;DHT22;25786;51.504;7.344;2023-05-16T05:33:02;9.80;81.70
40085;DHT22;25786;51.504;7.344;2023-05-16T05:35:28;10.10;81.00
40085;DHT22;25786;51.504;7.344;2023-05-16T05:37:53;10.40;79.40
40085;DHT22;25786;51.504;7.344;2023-05-16T05:40:19;10.30;79.20
40085;DHT22;25786;51.504;7.344;2023-05-16T05:42:44;10.30;77.80
40085;DHT22;25786;51.504;7.344;2023-05-16T05:45:10;10.30;80.20
40085;DHT22;25786;51.504;7.344;2023-05-16T05:47:35;10.30;78.80
40085;DHT22;25786;51.504;7.344;2023-05-16T05:50:01;10.30;78.50
40085;DHT22;25786;51.504;7.344;2023-05-16T05:52:27;10.60;79.10
40085;DHT22;25786;51.504;7.344;2023-05-16T05:54:52;10.80;77.60
40085;DHT22;25786;51.504;7.344;2023-05-16T05:57:18;10.70;77.00
40085;DHT22;25786;51.504;7.344;2023-05-16T05:59:43;10.70;77.60
40085;DHT22;25786;51.504;7.344;2023-05-16T06:02:09;10.50;78.70
40085;DHT22;25786;51.504;7.344;2023-05-16T06:04:35;10.30;78.40
40085;DHT22;25786;51.504;7.344;2023-05-16T06:07:00;10.30;78.10
40085;DHT22;25786;51.504;7.344;2023-05-16T06:09:26;10.10;80.00
40085;DHT22;25786;51.504;7.344;2023-05-16T06:11:51;10.00;81.80
40085;DHT22;25786;51.504;7.344;2023-05-16T06:14:17;10.10;80.40
40085;DHT22;25786;51.504;7.344;2023-05-16T06:16:42;10.20;79.80
40085;DHT22;25786;51.504;7.344;2023-05-16T06:19:08;10.10;78.50
40085;DHT22;25786;51.504;7.344;2023-05-16T06:21:33;10.00;79.60
40085;DHT22;25786;51.504;7.344;2023-05-16T06:23:59;10.10;80.00
40085;DHT22;25786;51.504;7.344;2023-05-16T06:26:24;10.20;78.80
40085;DHT22;25786;51.504;7.344;2023-05-16T06:28:50;10.20;78.20
40085;DHT22;25786;51.504;7.344;2023-05-16T06:31:15;10.20;77.90
40085;DHT22;25786;51.504;7.344;2023-05-16T06:33:41;10.10;78.20
40085;DHT22;25786;51.504;7.344;2023-05-16T06:36:06;10.10;79.10
40085;DHT22;25786;51.504;7.344;2023-05-16T06:38:32;10.10;77.90
40085;DHT22;25786;51.504;7.344;2023-05-16T06:40:57;10.10;79.10
40085;DHT22;25786;51.504;7.344;2023-05-16T06:43:23;10.10;79.10
40085;DHT22;25786;51.504;7.344;2023-05-16T06:45:48;10.20;79.30
40085;DHT22;25786;51.504;7.344;2023-05-16T06:48:14;10.20;78.60
40085;DHT22;25786;51.504;7.344;2023-05-16T06:50:40;10.30;77.60
40085;DHT22;25786;51.504;7.344;2023-05-16T06:53:05;10.40;78.00
40085;DHT22;25786;51.504;7.344;2023-05-16T06:55:32;10.50;76.80
40085;DHT22;25786;51.504;7.344;2023-05-16T06:57:57;10.60;76.60
40085;DHT22;25786;51.504;7.344;2023-05-16T07:00:23;10.60;75.00
40085;DHT22;25786;51.504;7.344;2023-05-16T07:02:48;10.60;75.30
40085;DHT22;25786;51.504;7.344;2023-05-16T07:05:14;10.60;73.20
40085;DHT22;25786;51.504;7.344;2023-05-16T07:07:40;10.50;74.90
40085;DHT22;25786;51.504;7.344;2023-05-16T07:10:05;10.60;74.30
40085;DHT22;25786;51.504;7.344;2023-05-16T07:12:31;10.60;74.50
40085;DHT22;25786;51.504;7.344;2023-05-16T07:14:56;10.70;73.50
40085;DHT22;25786;51.504;7.344;2023-05-16T07:17:22;10.80;72.70
40085;DHT22;25786;51.504;7.344;2023-05-16T07:19:48;10.80;73.30
40085;DHT22;25786;51.504;7.344;2023-05-16T07:22:14;11.00;73.30
40085;DHT22;25786;51.504;7.344;2023-05-16T07:24:39;11.00;73.80
40085;DHT22;25786;51.504;7.344;2023-05-16T07:27:05;11.10;71.70
40085;DHT22;25786;51.504;7.344;2023-05-16T07:29:30;11.20;73.30
40085;DHT22;25786;51.504;7.344;2023-05-16T07:31:56;11.30;72.10
40085;DHT22;25786;51.504;7.344;2023-05-16T07:34:22;11.30;71.80
40085;DHT22;25786;51.504;7.344;2023-05-16T07:36:47;11.20;70.70
40085;DHT22;25786;51.504;7.344;2023-05-16T07:39:12;11.10;68.80
40085;DHT22;25786;51.504;7.344;2023-05-16T07:41:38;10.90;70.60
40085;DHT22;25786;51.504;7.344;2023-05-16T07:44:04;10.80;71.50
40085;DHT22;25786;51.504;7.344;2023-05-16T07:46:30;10.90;70.80
40085;DHT22;25786;51.504;7.344;2023-05-16T07:48:55;10.80;73.40
40085;DHT22;25786;51.504;7.344;2023-05-16T07:51:21;10.90;72.10
40085;DHT22;25786;51.504;7.344;2023-05-16T07:53:46;11.00;71.60
40085;DHT22;25786;51.504;7.344;2023-05-16T07:56:12;11.00;68.60
40085;DHT22;25786;51.504;7.344;2023-05-16T07:58:37;11.10;67.80
40085;DHT22;25786;51.504;7.344;2023-05-16T08:01:03;11.00;67.40
40085;DHT22;25786;51.504;7.344;2023-05-16T08:03:28;10.80;69.30
40085;DHT22;25786;51.504;7.344;2023-05-16T08:05:54;10.70;72.10
40085;DHT22;25786;51.504;7.344;2023-05-16T08:08:20;10.80;68.30
40085;DHT22;25786;51.504;7.344;2023-05-16T08:10:45;11.00;65.10
40085;DHT22;25786;51.504;7.344;2023-05-16T08:13:11;11.10;66.60
40085;DHT22;25786;51.504;7.344;2023-05-16T08:15:36;11.10;65.00
40085;DHT22;25786;51.504;7.344;2023-05-16T08:18:02;11.20;63.70
40085;DHT22;25786;51.504;7.344;2023-05-16T08:20:27;11.20;64.40
40085;DHT22;25786;51.504;7.344;2023-05-16T08:22:53;11.50;63.10
40085;DHT22;25786;51.504;7.344;2023-05-16T08:25:19;11.60;61.80
40085;DHT22;25786;51.504;7.344;2023-05-16T08:27:45;11.50;63.40
40085;DHT22;25786;51.504;7.344;2023-05-16T08:30:11;11.80;62.10
40085;DHT22;25786;51.504;7.344;2023-05-16T08:32:37;11.90;61.60
40085;DHT22;25786;51.504;7.344;2023-05-16T08:35:02;12.00;61.60
40085;DHT22;25786;51.504;7.344;2023-05-16T08:37:28;12.10;60.60
40085;DHT22;25786;51.504;7.344;2023-05-16T08:39:53;11.90;61.20
40085;DHT22;25786;51.504;7.344;2023-05-16T08:42:19;11.80;61.10
40085;DHT22;25786;51.504;7.344;2023-05-16T08:44:44;11.80;60.80
40085;DHT22;25786;51.504;7.344;2023-05-16T08:47:11;11.90;61.60
40085;DHT22;25786;51.504;7.344;2023-05-16T08:49:39;12.00;62.70
40085;DHT22;25786;51.504;7.344;2023-05-16T08:52:08;12.30;58.10
40085;DHT22;25786;51.504;7.344;2023-05-16T08:54:35;12.30;61.90
40085;DHT22;25786;51.504;7.344;2023-05-16T08:57:02;12.50;58.00
40085;DHT22;25786;51.504;7.344;2023-05-16T08:59:28;12.40;57.20
40085;DHT22;25786;51.504;7.344;2023-05-16T09:01:54;12.50;56.40
40085;DHT22;25786;51.504;7.344;2023-05-16T09:04:20;12.40;56.20
40085;DHT22;25786;51.504;7.344;2023-05-16T09:06:46;12.40;58.50
40085;DHT22;25786;51.504;7.344;2023-05-16T09:09:12;12.50;55.80
40085;DHT22;25786;51.504;7.344;2023-05-16T09:11:38;12.60;53.70
40085;DHT22;25786;51.504;7.344;2023-05-16T09:14:06;12.70;54.40
40085;DHT22;25786;51.504;7.344;2023-05-16T09:16:31;12.90;54.10
40085;DHT22;25786;51.504;7.344;2023-05-16T09:18:58;13.00;55.60
40085;DHT22;25786;51.504;7.344;2023-05-16T09:21:28;13.10;57.80
40085;DHT22;25786;51.504;7.344;2023-05-16T09:23:53;13.30;57.20
40085;DHT22;25786;51.504;7.344;2023-05-16T09:26:19;13.20;55.30
40085;DHT22;25786;51.504;7.344;2023-05-16T09:28:46;13.10;53.20
40085;DHT22;25786;51.504;7.344;2023-05-16T09:31:23;12.80;55.40
40085;DHT22;25786;51.504;7.344;2023-05-16T09:33:56;12.70;55.70
40085;DHT22;25786;51.504;7.344;2023-05-16T09:36:22;12.70;55.00
40085;DHT22;25786;51.504;7.344;2023-05-16T09:38:51;12.70;54.30
40085;DHT22;25786;51.504;7.344;2023-05-16T09:41:16;12.90;56.20
40085;DHT22;25786;51.504;7.344;2023-05-16T09:43:43;13.10;53.80
40085;DHT22;25786;51.504;7.344;2023-05-16T09:46:12;13.10;53.90
40085;DHT22;25786;51.504;7.344;2023-05-16T09:48:47;13.10;54.80
40085;DHT22;25786;51.504;7.344;2023-05-16T09:51:13;12.90;54.90
40085;DHT22;25786;51.504;7.344;2023-05-16T09:53:39;13.10;51.90
40085;DHT22;25786;51.504;7.344;2023-05-16T09:56:15;13.10;52.00
40085;DHT22;25786;51.504;7.344;2023-05-16T09:58:41;13.10;53.80
40085;DHT22;25786;51.504;7.344;2023-05-16T10:01:08;13.30;53.40
40085;DHT22;25786;51.504;7.344;2023-05-16T10:03:39;13.30;52.90
40085;DHT22;25786;51.504;7.344;2023-05-16T10:06:05;13.20;52.70
40085;DHT22;25786;51.504;7.344;2023-05-16T10:08:31;13.30;53.30
40085;DHT22;25786;51.504;7.344;2023-05-16T10:11:01;13.30;54.10
40085;DHT22;25786;51.504;7.344;2023-05-16T10:13:27;13.40;52.50
40085;DHT22;25786;51.504;7.344;2023-05-16T10:15:57;13.40;53.10
40085;DHT22;25786;51.504;7.344;2023-05-16T10:18:29;13.60;54.00
40085;DHT22;25786;51.504;7.344;2023-05-16T10:20:56;13.70;52.10
40085;DHT22;25786;51.504;7.344;2023-05-16T10:23:22;13.60;53.00
40085;DHT22;25786;51.504;7.344;2023-05-16T10:25:49;13.70;50.80
40085;DHT22;25786;51.504;7.344;2023-05-16T10:28:15;13.60;51.60
40085;DHT22;25786;51.504;7.344;2023-05-16T10:30:41;13.60;52.50
40085;DHT22;25786;51.504;7.344;2023-05-16T10:33:14;13.60;52.50
40085;DHT22;25786;51.504;7.344;2023-05-16T10:35:40;13.60;52.20
40085;DHT22;25786;51.504;7.344;2023-05-16T10:38:06;13.90;51.80
40085;DHT22;25786;51.504;7.344;2023-05-16T10:40:37;14.00;51.50
40085;DHT22;25786;51.504;7.344;2023-05-16T10:43:03;14.10;50.80
40085;DHT22;25786;51.504;7.344;2023-05-16T10:45:29;14.30;50.30
40085;DHT22;25786;51.504;7.344;2023-05-16T10:47:58;14.50;49.70
40085;DHT22;25786;51.504;7.344;2023-05-16T10:50:34;14.30;50.10
40085;DHT22;25786;51.504;7.344;2023-05-16T10:53:20;14.40;51.30
40085;DHT22;25786;51.504;7.344;2023-05-16T11:06:32;14.30;51.20
40085;DHT22;25786;51.504;7.344;2023-05-16T11:09:04;14.10;51.60
40085;DHT22;25786;51.504;7.344;2023-05-16T11:11:39;14.20;51.30
40085;DHT22;25786;51.504;7.344;2023-05-16T11:14:05;14.60;52.00
40085;DHT22;25786;51.504;7.344;2023-05-16T11:16:31;14.80;51.70
40085;DHT22;25786;51.504;7.344;2023-05-16T11:19:04;15.00;50.10
40085;DHT22;25786;51.504;7.344;2023-05-16T11:24:28;14.80;53.90
40085;DHT22;25786;51.504;7.344;2023-05-16T11:26:57;14.80;50.40
40085;DHT22;25786;51.504;7.344;2023-05-16T11:29:23;14.70;52.50
40085;DHT22;25786;51.504;7.344;2023-05-16T11:31:49;14.90;52.70
40085;DHT22;25786;51.504;7.344;2023-05-16T11:34:16;15.30;51.30
40085;DHT22;25786;51.504;7.344;2023-05-16T11:36:42;15.30;51.20
40085;DHT22;25786;51.504;7.344;2023-05-16T11:39:10;15.20;50.20
40085;DHT22;25786;51.504;7.344;2023-05-16T11:41:37;15.40;49.50
40085;DHT22;25786;51.504;7.344;2023-05-16T11:44:03;15.60;50.10
40085;DHT22;25786;51.504;7.344;2023-05-16T11:46:30;15.90;49.50
40085;DHT22;25786;51.504;7.344;2023-05-16T11:48:58;15.70;48.90
40085;DHT22;25786;51.504;7.344;2023-05-16T11:51:24;15.70;48.80
40085;DHT22;25786;51.504;7.344;2023-05-16T11:53:49;15.40;50.40
40085;DHT22;25786;51.504;7.344;2023-05-16T11:56:17;15.30;50.30
40085;DHT22;25786;51.504;7.344;2023-05-16T11:58:42;15.00;51.90
40085;DHT22;25786;51.504;7.344;2023-05-16T12:01:08;14.90;51.30
40085;DHT22;25786;51.504;7.344;2023-05-16T12:03:34;14.80;51.10
40085;DHT22;25786;51.504;7.344;2023-05-16T12:06:01;14.60;53.50
40085;DHT22;25786;51.504;7.344;2023-05-16T12:08:26;14.60;54.50
40085;DHT22;25786;51.504;7.344;2023-05-16T12:10:52;14.50;53.90
40085;DHT22;25786;51.504;7.344;2023-05-16T12:13:18;14.30;55.50
40085;DHT22;25786;51.504;7.344;2023-05-16T12:15:45;14.20;57.30
40085;DHT22;25786;51.504;7.344;2023-05-16T12:18:10;14.10;57.90
40085;DHT22;25786;51.504;7.344;2023-05-16T12:20:38;14.00;59.90
40085;DHT22;25786;51.504;7.344;2023-05-16T12:23:04;14.10;59.00
40085;DHT22;25786;51.504;7.344;2023-05-16T12:25:34;14.10;57.30
40085;DHT22;25786;51.504;7.344;2023-05-16T12:28:02;14.40;56.90
40085;DHT22;25786;51.504;7.344;2023-05-16T12:30:28;14.40;56.60
40085;DHT22;25786;51.504;7.344;2023-05-16T12:35:49;14.10;55.20
40085;DHT22;25786;51.504;7.344;2023-05-16T12:38:17;13.90;55.40
40085;DHT22;25786;51.504;7.344;2023-05-16T12:40:56;14.00;56.10
40085;DHT22;25786;51.504;7.344;2023-05-16T12:48:32;14.00;54.80
40085;DHT22;25786;51.504;7.344;2023-05-16T12:54:11;14.30;53.50
40085;DHT22;25786;51.504;7.344;2023-05-16T12:56:37;14.50;53.00
40085;DHT22;25786;51.504;7.344;2023-05-16T13:02:09;15.00;52.00
40085;DHT22;25786;51.504;7.344;2023-05-16T13:07:30;15.30;51.30
40085;DHT22;25786;51.504;7.344;2023-05-16T13:10:05;15.10;47.60
40085;DHT22;25786;51.504;7.344;2023-05-16T13:15:33;14.90;49.90
40085;DHT22;25786;51.504;7.344;2023-05-16T13:21:12;14.50;51.90
40085;DHT22;25786;51.504;7.344;2023-05-16T13:23:39;14.50;52.30
40085;DHT22;25786;51.504;7.344;2023-05-16T13:26:05;14.60;50.70
40085;DHT22;25786;51.504;7.344;2023-05-16T13:28:30;14.60;51.50
40085;DHT22;25786;51.504;7.344;2023-05-16T13:30:58;14.70;51.80
40085;DHT22;25786;51.504;7.344;2023-05-16T13:33:23;14.60;51.40
40085;DHT22;25786;51.504;7.344;2023-05-16T13:35:49;14.80;50.40
40085;DHT22;25786;51.504;7.344;2023-05-16T13:38:15;14.90;50.80
40085;DHT22;25786;51.504;7.344;2023-05-16T13:40:41;15.10;52.00
40085;DHT22;25786;51.504;7.344;2023-05-16T13:43:07;15.50;50.30
40085;DHT22;25786;51.504;7.344;2023-05-16T13:45:33;15.60;45.30
40085;DHT22;25786;51.504;7.344;2023-05-16T13:47:58;15.70;44.80
40085;DHT22;25786;51.504;7.344;2023-05-16T13:50:24;15.70;44.30
40085;DHT22;25786;51.504;7.344;2023-05-16T13:52:49;16.00;44.30
40085;DHT22;25786;51.504;7.344;2023-05-16T13:55:16;15.90;44.30
40085;DHT22;25786;51.504;7.344;2023-05-16T13:57:42;15.80;44.20
40085;DHT22;25786;51.504;7.344;2023-05-16T14:00:08;15.50;45.30
40085;DHT22;25786;51.504;7.344;2023-05-16T14:02:40;15.30;46.50
40085;DHT22;25786;51.504;7.344;2023-05-16T14:05:06;15.50;46.30
40085;DHT22;25786;51.504;7.344;2023-05-16T14:10:43;15.20;46.90
40085;DHT22;25786;51.504;7.344;2023-05-16T14:13:14;15.10;46.20
40085;DHT22;25786;51.504;7.344;2023-05-16T14:15:53;15.00;46.90
40085;DHT22;25786;51.504;7.344;2023-05-16T14:18:22;15.30;46.00
40085;DHT22;25786;51.504;7.344;2023-05-16T14:20:48;15.20;46.10
40085;DHT22;25786;51.504;7.344;2023-05-16T14:23:15;15.10;45.70
40085;DHT22;25786;51.504;7.344;2023-05-16T14:25:43;15.10;46.00
40085;DHT22;25786;51.504;7.344;2023-05-16T14:28:08;14.90;46.80
40085;DHT22;25786;51.504;7.344;2023-05-16T14:30:34;15.00;46.40
40085;DHT22;25786;51.504;7.344;2023-05-16T14:33:01;15.00;46.90
40085;DHT22;25786;51.504;7.344;2023-05-16T14:35:27;15.10;46.80
40085;DHT22;25786;51.504;7.344;2023-05-16T14:37:53;15.00;48.10
40085;DHT22;25786;51.504;7.344;2023-05-16T14:40:19;15.10;47.30
40085;DHT22;25786;51.504;7.344;2023-05-16T14:42:46;15.20;49.00
40085;DHT22;25786;51.504;7.344;2023-05-16T14:45:11;15.50;47.60
40085;DHT22;25786;51.504;7.344;2023-05-16T14:47:36;15.60;47.20
40085;DHT22;25786;51.504;7.344;2023-05-16T14:50:02;15.50;46.90
40085;DHT22;25786;51.504;7.344;2023-05-16T14:52:28;15.70;47.70
40085;DHT22;25786;51.504;7.344;2023-05-16T14:54:53;15.60;48.90
40085;DHT22;25786;51.504;7.344;2023-05-16T14:57:18;15.70;46.50
40085;DHT22;25786;51.504;7.344;2023-05-16T14:59:44;15.60;46.30
40085;DHT22;25786;51.504;7.344;2023-05-16T15:02:14;15.50;47.40
40085;DHT22;25786;51.504;7.344;2023-05-16T15:04:39;15.40;47.40
40085;DHT22;25786;51.504;7.344;2023-05-16T15:07:04;15.30;46.90
40085;DHT22;25786;51.504;7.344;2023-05-16T15:09:30;15.30;48.10
40085;DHT22;25786;51.504;7.344;2023-05-16T15:11:55;15.20;47.50
40085;DHT22;25786;51.504;7.344;2023-05-16T15:14:21;15.10;48.50
40085;DHT22;25786;51.504;7.344;2023-05-16T15:16:46;15.10;48.00
40085;DHT22;25786;51.504;7.344;2023-05-16T15:19:11;15.20;48.00
40085;DHT22;25786;51.504;7.344;2023-05-16T15:21:37;15.20;47.80
40085;DHT22;25786;51.504;7.344;2023-05-16T15:24:02;15.10;49.00
40085;DHT22;25786;51.504;7.344;2023-05-16T15:26:28;15.00;49.20
40085;DHT22;25786;51.504;7.344;2023-05-16T15:28:54;15.00;49.90
40085;DHT22;25786;51.504;7.344;2023-05-16T15:31:20;14.90;51.00
40085;DHT22;25786;51.504;7.344;2023-05-16T15:33:45;14.50;52.00
40085;DHT22;25786;51.504;7.344;2023-05-16T15:36:11;14.40;52.80
40085;DHT22;25786;51.504;7.344;2023-05-16T15:38:36;14.20;54.40
40085;DHT22;25786;51.504;7.344;2023-05-16T15:41:02;14.20;54.80
40085;DHT22;25786;51.504;7.344;2023-05-16T15:43:30;14.10;55.90
40085;DHT22;25786;51.504;7.344;2023-05-16T15:45:56;14.20;54.90
40085;DHT22;25786;51.504;7.344;2023-05-16T15:48:21;14.20;55.50
40085;DHT22;25786;51.504;7.344;2023-05-16T15:50:46;14.20;54.60
40085;DHT22;25786;51.504;7.344;2023-05-16T15:53:12;14.10;56.00
40085;DHT22;25786;51.504;7.344;2023-05-16T15:55:37;14.30;55.10
40085;DHT22;25786;51.504;7.344;2023-05-16T15:58:03;14.40;55.70
40085;DHT22;25786;51.504;7.344;2023-05-16T16:00:29;14.50;54.80
40085;DHT22;25786;51.504;7.344;2023-05-16T16:02:55;14.50;54.10
40085;DHT22;25786;51.504;7.344;2023-05-16T16:05:20;14.60;54.30
40085;DHT22;25786;51.504;7.344;2023-05-16T16:07:46;14.70;53.50
40085;DHT22;25786;51.504;7.344;2023-05-16T16:10:11;14.70;52.80
40085;DHT22;25786;51.504;7.344;2023-05-16T16:12:37;14.80;52.90
40085;DHT22;25786;51.504;7.344;2023-05-16T16:15:02;14.90;52.80
40085;DHT22;25786;51.504;7.344;2023-05-16T16:17:30;14.90;53.20